Time;durP1;ratioP1;P1;durP2;ratioP2;P2;SDS_P1;SDS_P2;PMS_P1;PMS_P2;Temp;Humidity;BMP_temperature;BMP_pressure;BME280_temperature;BME280_humidity;BME280_pressure;Samples;Min_cycle;Max_cycle;Signal;HPM_P1;HPM_P2
2022/03/05 00:02:17;;;;;;;33.30;20.88;;;;;;;1.41;44.92;95006.78;5028716;28;20034;-57
2022/03/05 00:04:43;;;;;;;30.98;19.17;;;;;;;1.44;44.96;95002.47;5026710;28;20037;-60
2022/03/05 00:07:09;;;;;;;34.30;19.73;;;;;;;1.52;44.77;95011.59;5026750;28;20668;-57
2022/03/05 00:09:34;;;;;;;27.80;18.63;;;;;;;1.39;44.61;94983.97;5026625;28;20079;-58
2022/03/05 00:12:00;;;;;;;31.02;19.58;;;;;;;1.56;44.90;95014.00;5034663;28;20037;-57
2022/03/05 00:14:25;;;;;;;31.17;19.48;;;;;;;1.55;44.86;95009.78;5044660;28;20045;-58
2022/03/05 00:16:51;;;;;;;30.73;17.90;;;;;;;1.31;45.10;94962.19;5035932;28;20508;-58
2022/03/05 00:19:17;;;;;;;26.98;17.52;;;;;;;1.61;45.53;95009.63;5024979;28;20124;-58
2022/03/05 00:21:42;;;;;;;27.42;17.92;;;;;;;1.60;45.24;95005.41;5026203;28;20462;-58
2022/03/05 00:24:08;;;;;;;28.63;16.60;;;;;;;1.54;45.91;95012.38;5026021;28;20475;-58
2022/03/05 00:26:33;;;;;;;27.27;17.83;;;;;;;1.52;45.67;94996.34;5028660;28;20029;-57
2022/03/05 00:28:58;;;;;;;28.92;17.73;;;;;;;1.57;45.80;95013.13;5026323;28;20152;-58
2022/03/05 00:31:24;;;;;;;29.17;18.13;;;;;;;1.42;46.23;94991.50;5026608;28;20095;-61
2022/03/05 00:33:49;;;;;;;29.80;19.63;;;;;;;1.32;46.51;94986.72;5025982;28;20033;-59
2022/03/05 00:36:15;;;;;;;30.63;18.45;;;;;;;1.50;45.62;95011.63;5026012;28;20035;-57
2022/03/05 00:38:40;;;;;;;32.40;17.70;;;;;;;1.55;46.22;95014.03;5028814;28;20036;-62
2022/03/05 00:41:06;;;;;;;29.33;17.20;;;;;;;1.47;46.37;95012.53;5026008;28;20033;-60
2022/03/05 00:43:31;;;;;;;29.48;19.30;;;;;;;0.63;45.82;94870.09;5039502;28;20045;-58
2022/03/05 00:45:57;;;;;;;30.80;17.33;;;;;;;1.40;45.69;94993.25;5040041;28;20029;-59
2022/03/05 00:48:23;;;;;;;31.33;20.17;;;;;;;1.39;46.23;95004.28;5035732;28;20089;-64
2022/03/05 00:50:49;;;;;;;30.05;20.92;;;;;;;1.32;46.45;95005.34;5037340;28;20549;-59
2022/03/05 00:53:17;;;;;;;30.67;19.60;;;;;;;0.77;46.49;94916.25;5039117;28;20037;-58
2022/03/05 00:55:43;;;;;;;33.78;20.02;;;;;;;1.22;46.58;94997.13;5025698;28;20112;-57
2022/03/05 00:58:08;;;;;;;29.95;19.38;;;;;;;1.24;46.68;95003.00;5026630;28;20525;-58
2022/03/05 01:00:34;;;;;;;33.58;20.90;;;;;;;1.12;46.70;94993.19;5025071;28;20121;-56
2022/03/05 01:02:59;;;;;;;32.90;19.95;;;;;;;1.29;46.35;95003.69;5025931;28;20037;-59
2022/03/05 01:05:25;;;;;;;33.03;20.75;;;;;;;1.09;46.11;94962.78;5027182;28;20503;-60
2022/03/05 01:07:50;;;;;;;31.02;19.75;;;;;;;1.21;46.54;94994.63;5025311;28;20453;-55
2022/03/05 01:10:16;;;;;;;35.05;21.58;;;;;;;1.15;47.18;94990.56;5027932;28;20037;-63
2022/03/05 01:12:41;;;;;;;28.88;19.95;;;;;;;1.14;47.54;94990.59;5025266;28;20030;-56
2022/03/05 01:15:08;;;;;;;35.30;21.13;;;;;;;1.33;46.43;94975.69;5027469;28;20081;-59
2022/03/05 01:17:34;;;;;;;29.70;19.20;;;;;;;1.14;45.64;94942.34;5027515;28;20404;-58
2022/03/05 01:20:00;;;;;;;29.60;19.10;;;;;;;1.31;46.48;94995.22;5034692;28;20120;-57
2022/03/05 01:22:25;;;;;;;30.80;19.40;;;;;;;1.30;46.78;94989.31;5025464;28;20033;-60
2022/03/05 01:24:51;;;;;;;32.33;20.45;;;;;;;1.16;46.94;94974.44;5029349;28;20120;-57
2022/03/05 01:27:16;;;;;;;34.70;19.48;;;;;;;1.20;47.41;94987.91;5036353;28;20399;-59
2022/03/05 01:29:42;;;;;;;32.28;20.13;;;;;;;1.13;47.14;94973.69;5041770;28;20036;-59
2022/03/05 01:32:07;;;;;;;36.25;21.90;;;;;;;1.22;47.44;94986.16;5024748;28;20485;-59
2022/03/05 01:34:33;;;;;;;36.00;21.85;;;;;;;1.22;47.76;94986.97;5024955;28;20512;-60
2022/03/05 01:36:58;;;;;;;36.75;22.35;;;;;;;1.11;48.24;94966.09;5032883;28;20413;-55
2022/03/05 01:39:24;;;;;;;32.88;21.02;;;;;;;1.32;47.55;94991.81;5044690;28;20032;-58
2022/03/05 01:41:51;;;;;;;34.47;22.75;;;;;;;1.14;47.74;94952.50;5028077;28;20110;-62
2022/03/05 01:44:19;;;;;;;33.17;22.25;;;;;;;1.54;47.25;94982.72;5025028;28;20453;-58
2022/03/05 01:46:44;;;;;;;35.08;21.58;;;;;;;1.71;46.96;94989.84;5032915;28;20040;-60
2022/03/05 01:49:11;;;;;;;34.83;21.80;;;;;;;1.59;47.29;94941.91;5038222;28;20033;-57
2022/03/05 01:51:38;;;;;;;31.77;21.38;;;;;;;1.64;47.56;94947.69;5033364;28;20077;-58
2022/03/05 01:54:05;;;;;;;32.40;21.38;;;;;;;1.93;47.65;94984.97;5024870;28;20139;-58
2022/03/05 01:56:31;;;;;;;34.25;21.55;;;;;;;1.78;47.22;94945.56;5031079;28;20094;-58
2022/03/05 01:58:58;;;;;;;34.28;23.08;;;;;;;1.62;47.15;94904.53;5043135;28;20115;-58
2022/03/05 02:01:25;;;;;;;30.08;21.17;;;;;;;2.13;46.93;94984.38;5037852;28;20171;-59
2022/03/05 02:03:51;;;;;;;36.85;22.75;;;;;;;2.07;46.90;94969.31;5024593;28;20040;-61
2022/03/05 02:06:17;;;;;;;38.75;23.80;;;;;;;2.13;46.59;94956.41;5024407;28;20025;-62
2022/03/05 02:08:43;;;;;;;40.70;23.13;;;;;;;2.31;46.28;94983.00;5024083;28;20029;-57
2022/03/05 02:11:08;;;;;;;44.40;28.08;;;;;;;2.19;46.34;94980.81;5024107;28;20029;-60
2022/03/05 02:13:36;;;;;;;46.45;27.83;;;;;;;1.85;46.52;94946.22;5024506;28;20045;-63
2022/03/05 02:16:02;;;;;;;47.97;29.42;;;;;;;2.05;46.53;94982.94;5024623;28;20432;-57
2022/03/05 02:18:28;;;;;;;40.05;26.88;;;;;;;2.12;46.45;94981.88;5036070;28;20086;-59
2022/03/05 02:20:54;;;;;;;35.80;22.95;;;;;;;2.18;47.19;94984.22;5045559;28;20036;-58
2022/03/05 02:23:20;;;;;;;39.97;23.38;;;;;;;2.21;47.15;94981.59;5035163;28;20034;-57
2022/03/05 02:25:53;;;;;;;39.70;26.63;;;;;;;2.00;47.00;94972.91;5028334;28;20049;-56
2022/03/05 02:28:20;;;;;;;36.05;22.90;;;;;;;1.82;47.27;94989.53;5028878;28;20045;-56
2022/03/05 02:30:46;;;;;;;42.63;25.42;;;;;;;1.61;47.80;94988.47;5028457;28;20026;-59
2022/03/05 02:33:11;;;;;;;38.58;24.85;;;;;;;1.48;48.38;95000.69;5031038;28;20687;-61
2022/03/05 02:35:37;;;;;;;40.40;23.38;;;;;;;1.37;48.57;94985.72;5027753;28;20041;-58
2022/03/05 02:38:02;;;;;;;37.45;22.50;;;;;;;1.12;48.74;94952.53;5030008;28;20033;-58
2022/03/05 02:40:28;;;;;;;37.90;23.23;;;;;;;1.19;48.91;94981.16;5034141;28;20037;-62
2022/03/05 02:42:53;;;;;;;38.55;24.35;;;;;;;0.96;48.93;94967.34;5028242;28;20029;-57
2022/03/05 02:45:19;;;;;;;36.90;23.52;;;;;;;1.03;49.13;94990.88;5028159;28;20536;-59
2022/03/05 02:47:44;;;;;;;35.13;23.30;;;;;;;0.96;49.26;94984.31;5028309;28;20492;-58
2022/03/05 02:50:10;;;;;;;36.72;24.63;;;;;;;0.85;49.58;94985.41;5027901;28;20545;-60
2022/03/05 02:52:38;;;;;;;42.25;22.58;;;;;;;0.61;49.43;94953.00;5030277;28;20787;-59
2022/03/05 02:55:04;;;;;;;35.63;23.70;;;;;;;0.80;50.37;94989.75;5030765;28;20421;-63
2022/03/05 02:57:30;;;;;;;35.85;23.40;;;;;;;0.85;50.28;94994.72;5030798;28;20033;-58
2022/03/05 02:59:55;;;;;;;39.13;25.35;;;;;;;0.72;50.53;94981.50;5030244;28;20029;-57
2022/03/05 03:02:21;;;;;;;38.25;24.10;;;;;;;0.75;50.78;94976.34;5030909;28;20116;-56
2022/03/05 03:04:46;;;;;;;39.78;24.23;;;;;;;0.84;50.93;94975.31;5030674;28;20342;-58
2022/03/05 03:07:12;;;;;;;39.80;25.15;;;;;;;0.82;50.74;94969.41;5030268;28;20483;-60
2022/03/05 03:09:37;;;;;;;39.28;23.30;;;;;;;0.99;50.89;94991.84;5030866;28;20022;-58
2022/03/05 03:12:03;;;;;;;41.10;24.40;;;;;;;0.89;50.83;94987.00;5029997;28;20389;-59
2022/03/05 03:14:28;;;;;;;36.20;23.08;;;;;;;0.89;51.03;94993.78;5030372;28;20124;-59
2022/03/05 03:16:54;;;;;;;39.90;25.20;;;;;;;0.73;51.17;94976.38;5030357;28;20099;-60
2022/03/05 03:19:19;;;;;;;39.72;25.05;;;;;;;0.99;51.30;94994.38;5030714;28;20095;-61
2022/03/05 03:21:45;;;;;;;37.03;24.33;;;;;;;1.02;50.72;94990.06;5030602;28;20040;-58
2022/03/05 03:24:11;;;;;;;39.35;24.33;;;;;;;1.07;51.13;95002.63;5029801;28;20724;-55
2022/03/05 03:26:37;;;;;;;39.65;24.48;;;;;;;1.08;51.44;94994.13;5030454;28;20037;-58
2022/03/05 03:29:02;;;;;;;36.38;21.95;;;;;;;1.21;50.57;94995.47;5028860;28;20467;-59
2022/03/05 03:31:28;;;;;;;36.60;23.38;;;;;;;0.88;50.38;94934.53;5030526;28;20026;-58
2022/03/05 03:33:53;;;;;;;41.53;25.13;;;;;;;1.07;50.21;94956.91;5030515;28;20033;-58
2022/03/05 03:36:19;;;;;;;41.35;24.70;;;;;;;1.32;50.20;94992.63;5029964;28;20104;-59
2022/03/05 03:38:45;;;;;;;41.30;24.98;;;;;;;1.37;50.53;94995.88;5030044;28;20080;-60
2022/03/05 03:41:10;;;;;;;38.58;23.77;;;;;;;1.17;50.33;94963.41;5030048;28;20040;-58
2022/03/05 03:43:36;;;;;;;37.10;24.42;;;;;;;1.28;50.24;94998.69;5030280;28;20029;-58
2022/03/05 03:46:02;;;;;;;37.60;24.60;;;;;;;1.19;50.22;95002.28;5030196;28;20030;-59
2022/03/05 03:48:27;;;;;;;39.33;25.58;;;;;;;1.14;50.27;94998.22;5029772;28;20040;-59
2022/03/05 03:50:53;;;;;;;35.28;23.55;;;;;;;1.08;51.06;94996.66;5030067;28;20034;-59
2022/03/05 03:53:18;;;;;;;33.25;23.48;;;;;;;1.13;50.91;95002.44;5030020;28;20092;-59
2022/03/05 03:55:44;;;;;;;35.30;23.05;;;;;;;1.12;50.70;95000.81;5029695;28;20029;-63
2022/03/05 03:58:09;;;;;;;39.42;22.38;;;;;;;1.02;50.62;94999.38;5029879;28;20030;-58
2022/03/05 04:00:34;;;;;;;29.95;21.88;;;;;;;0.88;50.88;95005.63;5029717;28;20040;-59
2022/03/05 04:03:00;;;;;;;34.40;23.08;;;;;;;0.85;50.87;95012.50;5029710;28;20021;-61
2022/03/05 04:05:26;;;;;;;35.50;22.88;;;;;;;0.80;51.53;95007.53;5029989;28;20075;-57
2022/03/05 04:10:35;;;;;;;29.30;19.00;;;;;;;0.66;49.83;95007.06;5030002;28;20570;-64
2022/03/05 04:13:00;;;;;;;28.90;18.13;;;;;;;0.67;49.65;95018.84;5029077;28;20037;-58
2022/03/05 04:15:26;;;;;;;32.45;20.90;;;;;;;0.46;50.47;94999.91;5029990;28;20072;-59
2022/03/05 04:17:51;;;;;;;31.17;20.25;;;;;;;0.57;50.28;95014.88;5029569;28;20018;-60
2022/03/05 04:20:17;;;;;;;29.42;19.73;;;;;;;0.52;50.55;95002.28;5029754;28;20105;-61
2022/03/05 04:22:43;;;;;;;29.88;19.00;;;;;;;0.44;50.44;95002.47;5029616;28;20022;-61
2022/03/05 04:25:09;;;;;;;26.98;19.20;;;;;;;0.59;50.60;95014.00;5028936;28;20145;-57
2022/03/05 04:27:34;;;;;;;30.83;20.42;;;;;;;0.50;50.97;95025.16;5029648;28;20053;-60
2022/03/05 04:30:00;;;;;;;28.58;18.33;;;;;;;0.52;51.13;95025.97;5029521;28;20049;-59
2022/03/05 04:32:25;;;;;;;26.52;19.17;;;;;;;0.39;51.50;95016.16;5029428;28;20026;-56
2022/03/05 04:34:51;;;;;;;30.05;19.33;;;;;;;0.32;52.73;95026.44;5029032;28;20021;-54
2022/03/05 04:37:16;;;;;;;26.85;18.88;;;;;;;0.28;52.48;95024.00;5028651;28;20100;-61
2022/03/05 04:39:42;;;;;;;30.40;18.17;;;;;;;0.25;52.95;95024.91;5028807;28;20034;-60
2022/03/05 04:42:08;;;;;;;32.90;19.92;;;;;;;0.21;52.69;95017.41;5028828;28;20033;-58
2022/03/05 04:44:33;;;;;;;28.42;18.70;;;;;;;0.15;53.31;95006.53;5029278;28;20065;-61
2022/03/05 04:46:59;;;;;;;29.10;19.20;;;;;;;0.05;53.19;94999.16;5029093;28;20021;-59
2022/03/05 04:49:24;;;;;;;29.42;20.20;;;;;;;0.20;52.55;95016.59;5028598;28;20033;-62
2022/03/05 04:51:50;;;;;;;28.35;18.20;;;;;;;0.22;52.79;95019.91;5028829;28;20108;-59
2022/03/05 04:54:16;;;;;;;27.30;19.73;;;;;;;0.18;53.11;95020.81;5028491;28;20174;-60
2022/03/05 04:56:42;;;;;;;28.48;19.30;;;;;;;0.11;53.48;95020.13;5029139;28;20037;-58
2022/03/05 04:59:07;;;;;;;30.20;19.92;;;;;;;0.00;53.80;95024.63;5028665;28;20415;-59
2022/03/05 05:01:32;;;;;;;34.03;22.10;;;;;;;0.09;53.93;95026.13;5028619;28;20036;-61
2022/03/05 05:03:58;;;;;;;31.95;21.27;;;;;;;0.04;54.09;95021.16;5028497;28;20462;-60
2022/03/05 05:06:24;;;;;;;30.45;20.55;;;;;;;0.08;55.36;95037.97;5028745;28;20026;-57
2022/03/05 05:08:50;;;;;;;33.53;21.25;;;;;;;0.08;55.39;95037.97;5028472;28;20033;-60
2022/03/05 05:11:16;;;;;;;31.75;19.42;;;;;;;0.18;54.94;95034.38;5028302;28;20029;-65
2022/03/05 05:13:41;;;;;;;29.30;19.15;;;;;;;0.21;54.49;95025.84;5028195;28;20132;-58
2022/03/05 05:16:07;;;;;;;30.70;19.52;;;;;;;0.26;54.20;95025.75;5028707;28;20038;-62
2022/03/05 05:18:33;;;;;;;27.30;19.55;;;;;;;0.09;53.77;94981.31;5028473;28;20090;-60
2022/03/05 05:21:00;;;;;;;32.25;20.73;;;;;;;0.51;53.96;95031.91;5028588;28;20148;-58
2022/03/05 05:23:26;;;;;;;32.17;20.00;;;;;;;0.64;52.84;95029.06;5028076;28;20411;-59
2022/03/05 05:25:52;;;;;;;31.38;19.35;;;;;;;0.67;53.71;95045.09;5027951;28;20195;-59
2022/03/05 05:28:17;;;;;;;32.63;20.48;;;;;;;0.74;53.61;95045.78;5028114;28;20029;-59
2022/03/05 05:30:43;;;;;;;31.88;19.73;;;;;;;0.69;52.86;95035.72;5028295;28;20041;-59
2022/03/05 05:33:08;;;;;;;32.17;20.33;;;;;;;0.38;52.70;94977.28;5028596;28;20025;-58
2022/03/05 05:35:33;;;;;;;28.27;19.48;;;;;;;1.13;51.42;95073.56;5027767;28;20071;-58
2022/03/05 05:37:59;;;;;;;31.65;20.70;;;;;;;1.25;51.38;95072.44;5028145;28;20041;-61
2022/03/05 05:40:24;;;;;;;32.90;21.13;;;;;;;1.25;51.16;95067.38;5028044;28;20026;-61
2022/03/05 05:42:50;;;;;;;35.35;22.55;;;;;;;1.19;51.68;95075.97;5027967;28;20033;-59
2022/03/05 05:45:15;;;;;;;29.45;20.88;;;;;;;1.17;51.49;95069.25;5028304;28;20018;-57
2022/03/05 05:47:41;;;;;;;34.60;21.67;;;;;;;1.30;51.19;95083.31;5027549;28;20073;-57
2022/03/05 05:50:07;;;;;;;32.47;20.00;;;;;;;1.15;50.26;95036.28;5028059;28;20064;-62
2022/03/05 05:52:33;;;;;;;28.65;18.27;;;;;;;1.54;48.76;95083.53;5027220;28;20037;-58
2022/03/05 05:54:59;;;;;;;27.15;18.05;;;;;;;1.47;48.07;95047.28;5027715;28;20033;-60
2022/03/05 05:57:25;;;;;;;28.75;18.08;;;;;;;0.93;48.65;94990.28;5027835;28;20048;-62
2022/03/05 05:59:50;;;;;;;27.67;18.48;;;;;;;1.58;48.99;95097.84;5027503;28;20420;-62
2022/03/05 06:02:16;;;;;;;31.70;20.30;;;;;;;1.62;49.42;95086.69;5027682;28;20040;-60
2022/03/05 06:04:41;;;;;;;34.40;23.08;;;;;;;1.62;49.99;95095.19;5027947;28;20503;-56
2022/03/05 06:07:07;;;;;;;35.38;22.83;;;;;;;1.64;50.06;95092.56;5026548;28;20048;-57
2022/03/05 06:09:33;;;;;;;32.28;22.38;;;;;;;1.63;50.43;95103.63;5028151;28;20041;-59
2022/03/05 06:11:58;;;;;;;33.65;22.52;;;;;;;1.65;50.71;95104.41;5027390;28;20075;-62
2022/03/05 06:14:24;;;;;;;35.85;23.30;;;;;;;1.73;50.69;95105.03;5027707;28;20500;-62
2022/03/05 06:16:49;;;;;;;34.33;24.77;;;;;;;1.65;51.46;95106.97;5027873;28;20711;-59
2022/03/05 06:19:15;;;;;;;37.33;25.67;;;;;;;1.49;52.16;95110.78;5027520;28;20026;-62
2022/03/05 06:21:40;;;;;;;39.88;25.95;;;;;;;1.43;51.84;95110.06;5025914;28;20026;-60
2022/03/05 06:24:07;;;;;;;39.03;26.70;;;;;;;1.74;51.51;95121.97;5043341;28;20747;-65
2022/03/05 06:26:34;;;;;;;42.25;27.20;;;;;;;1.85;51.10;95114.03;5030989;28;20041;-61
2022/03/05 06:28:59;;;;;;;39.03;26.05;;;;;;;1.50;50.75;95047.22;5024571;28;20040;-61
2022/03/05 06:31:24;;;;;;;43.22;29.50;;;;;;;1.12;51.00;94984.75;5029036;28;20034;-60
2022/03/05 06:33:50;;;;;;;42.58;27.42;;;;;;;1.99;50.67;95111.97;5035919;28;20028;-63
2022/03/05 06:36:16;;;;;;;39.33;26.02;;;;;;;2.18;49.98;95114.81;5033423;28;20448;-57
2022/03/05 06:38:41;;;;;;;43.53;28.20;;;;;;;2.33;49.44;95097.47;5024381;28;20037;-59
2022/03/05 06:41:07;;;;;;;41.67;26.17;;;;;;;2.67;48.18;95115.09;5024432;28;20029;-59
2022/03/05 06:43:32;;;;;;;40.03;25.48;;;;;;;2.72;47.81;95114.94;5024322;28;20033;-63
2022/03/05 06:45:58;;;;;;;40.10;26.48;;;;;;;2.80;47.82;95107.88;5027156;28;20029;-61
2022/03/05 06:48:23;;;;;;;37.08;25.98;;;;;;;3.00;46.71;95111.53;5025892;28;20441;-64
2022/03/05 06:50:49;;;;;;;41.50;27.15;;;;;;;2.87;47.06;95118.72;5024276;28;20025;-59
2022/03/05 06:53:14;;;;;;;43.50;27.08;;;;;;;2.46;46.40;95021.53;5026845;28;20026;-66
2022/03/05 06:55:40;;;;;;;39.63;26.65;;;;;;;3.40;46.21;95116.16;5026719;28;20035;-60
2022/03/05 06:58:05;;;;;;;40.60;25.38;;;;;;;3.48;45.60;95110.81;5033626;28;20156;-61
2022/03/05 07:00:31;;;;;;;42.92;28.02;;;;;;;3.65;44.91;95111.06;5028571;28;20137;-65
2022/03/05 07:02:57;;;;;;;40.10;27.92;;;;;;;3.45;45.27;95113.47;5038443;28;20361;-63
2022/03/05 07:05:22;;;;;;;42.88;29.50;;;;;;;3.36;45.62;95106.09;5048053;28;20033;-63
2022/03/05 07:07:48;;;;;;;40.13;28.10;;;;;;;3.76;44.37;95102.22;5042884;28;20033;-65
2022/03/05 07:10:13;;;;;;;47.83;28.27;;;;;;;3.97;44.01;95106.56;5031337;28;20547;-64
2022/03/05 07:12:39;;;;;;;43.45;29.08;;;;;;;3.93;43.54;95106.72;5050018;28;20036;-65
2022/03/05 07:15:06;;;;;;;38.08;26.15;;;;;;;4.08;43.69;95092.56;5050383;28;20052;-72
2022/03/05 07:17:32;;;;;;;39.03;28.10;;;;;;;3.84;42.67;95054.31;5061809;28;20048;-70
2022/03/05 07:19:57;;;;;;;44.42;28.38;;;;;;;3.85;42.71;95041.50;5070794;28;20021;-72
2022/03/05 07:22:23;;;;;;;39.08;26.25;;;;;;;4.45;42.10;95092.03;5053209;28;20085;-65
2022/03/05 07:24:49;;;;;;;37.17;25.50;;;;;;;4.12;42.32;95092.41;5050076;28;20029;-69
2022/03/05 07:27:15;;;;;;;38.33;25.65;;;;;;;4.07;42.52;95085.78;5060690;28;20033;-64
2022/03/05 07:29:42;;;;;;;35.63;24.08;;;;;;;3.90;41.64;95018.34;5070844;28;20050;-69
2022/03/05 07:32:07;;;;;;;37.83;26.08;;;;;;;4.59;41.01;95077.03;5070646;28;20028;-69
2022/03/05 07:34:33;;;;;;;43.20;28.33;;;;;;;4.69;41.91;95089.44;5070716;28;20036;-75
2022/03/05 07:36:58;;;;;;;40.65;29.08;;;;;;;4.81;42.00;95060.03;5059352;28;20053;-68
2022/03/05 07:39:24;;;;;;;46.65;31.05;;;;;;;5.28;40.89;95088.78;5037598;28;20088;-64
2022/03/05 07:41:50;;;;;;;45.80;29.73;;;;;;;5.05;41.13;95079.50;5039474;28;20400;-73
2022/03/05 07:44:16;;;;;;;41.47;29.65;;;;;;;4.82;41.42;95016.56;5038847;28;20031;-68
2022/03/05 07:46:41;;;;;;;46.10;31.95;;;;;;;5.05;41.43;95053.94;5040485;28;20127;-62
2022/03/05 07:49:07;;;;;;;52.22;34.55;;;;;;;5.13;41.04;95066.38;5038352;28;20161;-69
2022/03/05 07:51:34;;;;;;;50.33;31.48;;;;;;;4.48;42.54;95068.94;5039725;28;20431;-73
2022/03/05 07:53:59;;;;;;;44.47;30.73;;;;;;;5.21;41.72;95082.25;5040611;28;20021;-71
2022/03/05 07:56:25;;;;;;;51.30;31.08;;;;;;;5.43;41.22;95087.31;5038468;28;20678;-69
2022/03/05 07:58:50;;;;;;;46.08;32.40;;;;;;;4.81;41.87;95072.81;5039849;28;20013;-64
2022/03/05 08:01:16;;;;;;;47.35;31.40;;;;;;;4.75;42.13;95079.81;5037437;28;20439;-67
2022/03/05 08:03:41;;;;;;;50.17;33.20;;;;;;;4.66;43.24;95092.13;5030908;28;20060;-62
2022/03/05 08:06:07;;;;;;;53.08;31.90;;;;;;;4.63;43.11;95074.38;5038620;28;20518;-64
2022/03/05 08:08:32;;;;;;;48.45;32.42;;;;;;;4.86;42.31;95069.19;5041159;28;20081;-59
2022/03/05 08:10:59;;;;;;;45.03;31.48;;;;;;;5.00;41.55;95078.00;5041513;28;20528;-58
2022/03/05 08:13:24;;;;;;;43.33;30.65;;;;;;;4.91;41.92;95086.88;5025933;28;20437;-61
2022/03/05 08:15:50;;;;;;;45.55;30.10;;;;;;;5.15;41.48;95085.91;5030441;28;20025;-62
2022/03/05 08:18:15;;;;;;;48.10;31.55;;;;;;;5.59;40.34;95084.97;5033212;28;20148;-59
2022/03/05 08:20:41;;;;;;;42.08;30.05;;;;;;;5.54;40.50;95058.72;5041525;28;20025;-60
2022/03/05 08:23:07;;;;;;;40.35;30.02;;;;;;;5.98;40.09;95089.25;5031691;28;20018;-59
2022/03/05 08:25:33;;;;;;;46.78;31.52;;;;;;;5.97;39.06;95026.19;5034789;28;20033;-60
2022/03/05 08:27:58;;;;;;;45.05;32.53;;;;;;;6.62;39.00;95089.84;5037700;28;20048;-62
2022/03/05 08:30:24;;;;;;;47.63;32.47;;;;;;;7.43;37.14;95076.56;5045879;28;20535;-59
2022/03/05 08:32:50;;;;;;;43.78;28.83;;;;;;;7.82;35.49;95068.63;5034053;28;20034;-59
2022/03/05 08:35:25;;;;;;;43.45;29.33;;;;;;;8.16;34.56;95056.59;5026727;28;20477;-60
2022/03/05 08:37:51;;;;;;;39.03;29.17;;;;;;;8.42;34.51;95080.88;5031385;28;20036;-58
2022/03/05 08:40:18;;;;;;;43.38;31.52;;;;;;;8.36;34.29;95063.25;5045838;28;20033;-60
2022/03/05 08:42:45;;;;;;;42.92;32.15;;;;;;;8.41;34.60;95075.81;5045181;28;20110;-67
2022/03/05 08:45:12;;;;;;;44.20;31.45;;;;;;;8.25;34.73;95075.84;5046396;28;20078;-60
2022/03/05 08:47:38;;;;;;;41.13;30.77;;;;;;;7.33;35.29;94994.16;5044372;28;20124;-61
2022/03/05 08:50:05;;;;;;;47.00;30.33;;;;;;;7.82;35.44;95083.19;5029958;28;20041;-61
2022/03/05 08:52:41;;;;;;;44.90;30.13;;;;;;;7.86;35.30;95084.69;5031387;28;20028;-59
2022/03/05 08:55:10;;;;;;;41.63;31.50;;;;;;;8.00;35.55;95082.25;5046487;28;20062;-65
2022/03/05 08:57:36;;;;;;;49.58;33.30;;;;;;;8.09;35.59;95073.25;5028026;28;20055;-61
2022/03/05 09:00:03;;;;;;;46.15;32.08;;;;;;;7.87;35.65;95045.25;5028887;28;20489;-61
2022/03/05 09:02:30;;;;;;;47.53;34.92;;;;;;;8.02;36.18;95080.44;5026243;28;20028;-62
2022/03/05 09:04:55;;;;;;;50.80;33.28;;;;;;;7.97;36.24;95079.00;5026975;28;20029;-64
2022/03/05 09:07:21;;;;;;;46.65;31.25;;;;;;;8.00;36.48;95082.25;5033337;28;20036;-67
2022/03/05 09:09:46;;;;;;;42.83;29.67;;;;;;;7.99;37.08;95083.16;5036167;28;20607;-58
2022/03/05 09:12:12;;;;;;;40.35;28.83;;;;;;;7.74;38.26;95075.91;5033389;28;20033;-59
2022/03/05 09:14:37;;;;;;;41.80;28.02;;;;;;;7.60;39.10;95073.19;5025501;28;20041;-60
2022/03/05 09:17:04;;;;;;;40.55;26.50;;;;;;;7.33;40.07;95042.88;5025889;28;20493;-59
2022/03/05 09:19:30;;;;;;;35.08;24.75;;;;;;;7.20;41.12;95021.28;5025900;28;20115;-59
2022/03/05 09:21:55;;;;;;;35.92;26.95;;;;;;;7.03;41.21;94950.34;5028180;28;20101;-59
2022/03/05 09:24:21;;;;;;;37.08;26.77;;;;;;;7.99;40.78;95065.19;5023641;28;20029;-58
2022/03/05 09:26:46;;;;;;;35.70;25.95;;;;;;;8.23;40.34;95068.22;5023951;28;20038;-59
2022/03/05 09:29:12;;;;;;;36.15;25.20;;;;;;;8.46;39.82;95041.31;5025794;28;20033;-60
2022/03/05 09:31:39;;;;;;;32.85;24.20;;;;;;;8.99;38.19;95041.00;5024751;28;20030;-59
2022/03/05 09:34:05;;;;;;;35.88;25.20;;;;;;;9.06;38.28;95032.00;5023472;28;20037;-60
2022/03/05 09:36:31;;;;;;;35.80;24.15;;;;;;;9.35;38.00;95063.81;5028100;28;20041;-59
2022/03/05 09:38:56;;;;;;;37.10;26.67;;;;;;;9.52;37.16;95065.38;5024305;28;20151;-62
2022/03/05 09:41:22;;;;;;;35.78;25.85;;;;;;;9.81;36.80;95049.16;5026199;28;20042;-59
2022/03/05 09:43:48;;;;;;;32.72;25.10;;;;;;;10.37;35.28;95057.81;5039519;28;20112;-58
2022/03/05 09:46:18;;;;;;;31.90;24.15;;;;;;;11.06;34.41;95059.56;5039467;28;20026;-62
2022/03/05 09:48:44;;;;;;;35.47;24.73;;;;;;;11.29;33.81;95017.59;5032374;28;20041;-60
2022/03/05 09:51:10;;;;;;;33.65;24.25;;;;;;;12.11;32.07;95053.50;5024648;28;20033;-63
2022/03/05 09:53:35;;;;;;;32.15;23.90;;;;;;;14.37;29.55;95032.81;5022401;28;20021;-61
2022/03/05 09:56:01;;;;;;;43.30;25.77;;;;;;;14.88;28.90;95027.09;5024329;28;20079;-60
2022/03/05 09:58:26;;;;;;;34.22;25.98;;;;;;;15.06;27.42;95029.97;5023697;28;20025;-61
2022/03/05 10:00:52;;;;;;;33.63;25.17;;;;;;;13.40;28.56;94994.34;5023495;28;20068;-61
2022/03/05 10:03:18;;;;;;;28.90;20.95;;;;;;;13.49;29.35;95019.53;5024154;28;20041;-60
2022/03/05 10:05:43;;;;;;;27.58;21.90;;;;;;;12.76;30.34;95030.91;5027559;28;20021;-62
2022/03/05 10:08:13;;;;;;;28.48;23.38;;;;;;;12.02;31.59;95043.78;5023564;28;20029;-61
2022/03/05 10:10:56;;;;;;;28.25;21.90;;;;;;;11.59;32.64;95045.75;5026752;28;20095;-60
2022/03/05 10:13:31;;;;;;;28.13;19.98;;;;;;;10.99;33.68;95005.78;5023740;28;20451;-64
2022/03/05 10:16:21;;;;;;;27.35;19.98;;;;;;;11.27;33.54;95049.63;5024317;28;20037;-61
2022/03/05 10:18:46;;;;;;;25.55;20.65;;;;;;;10.88;34.18;95025.44;5042368;28;20127;-61
2022/03/05 10:21:12;;;;;;;27.75;22.05;;;;;;;10.64;34.85;95041.53;5039671;28;20580;-62
2022/03/05 10:23:42;;;;;;;26.08;21.02;;;;;;;10.47;35.14;95037.44;5031321;28;20663;-60
2022/03/05 10:26:09;;;;;;;24.45;19.67;;;;;;;10.20;35.78;95019.31;5025006;28;20119;-60
2022/03/05 10:28:35;;;;;;;23.23;18.50;;;;;;;10.39;36.45;95045.66;5024941;28;20041;-66
2022/03/05 10:31:04;;;;;;;26.90;20.17;;;;;;;10.44;36.49;95046.19;5024193;28;20037;-62
2022/03/05 10:33:30;;;;;;;24.63;19.58;;;;;;;10.43;36.33;95044.56;5023957;28;20025;-61
2022/03/05 10:35:57;;;;;;;26.50;20.30;;;;;;;10.27;36.36;95025.78;5023406;28;20130;-59
2022/03/05 10:38:25;;;;;;;27.27;20.05;;;;;;;10.06;37.01;95045.94;5033953;28;20037;-58
2022/03/05 10:40:55;;;;;;;30.45;21.73;;;;;;;9.73;37.34;95013.56;5028535;28;20120;-58
2022/03/05 10:43:21;;;;;;;33.75;24.00;;;;;;;9.76;38.76;95041.72;5027328;28;20511;-58
2022/03/05 10:45:49;;;;;;;27.80;20.92;;;;;;;9.38;38.44;94983.03;5029720;28;20036;-61
2022/03/05 10:48:26;;;;;;;30.25;21.88;;;;;;;9.28;38.91;95016.19;5027590;28;20037;-61
2022/03/05 10:51:02;;;;;;;28.30;21.55;;;;;;;9.19;39.95;95034.72;5031577;28;20025;-60
2022/03/05 10:53:45;;;;;;;25.23;20.30;;;;;;;9.17;39.34;95018.56;5026909;28;20018;-61
2022/03/05 10:56:34;;;;;;;27.73;22.20;;;;;;;8.91;40.19;95033.72;5027035;28;20038;-61
2022/03/05 10:59:05;;;;;;;28.65;22.77;;;;;;;8.27;41.39;94979.78;5032411;28;20017;-60
2022/03/05 11:01:31;;;;;;;34.08;23.58;;;;;;;8.33;42.25;95026.59;5046658;28;20136;-60
2022/03/05 11:03:57;;;;;;;30.08;22.15;;;;;;;8.21;43.16;95023.78;5032391;28;20040;-59
2022/03/05 11:06:25;;;;;;;31.27;22.98;;;;;;;8.20;43.16;95019.56;5042060;28;20483;-62
2022/03/05 11:08:51;;;;;;;26.73;20.92;;;;;;;8.09;43.11;95002.16;5050866;28;20029;-63
2022/03/05 11:11:19;;;;;;;31.80;22.00;;;;;;;8.03;43.84;95015.31;5037506;28;20025;-61
2022/03/05 11:13:45;;;;;;;28.45;21.50;;;;;;;7.54;44.21;94982.78;5030068;28;20122;-59
2022/03/05 11:16:12;;;;;;;32.83;22.83;;;;;;;7.80;44.67;95018.25;5030285;28;20025;-60
2022/03/05 11:18:38;;;;;;;26.85;21.63;;;;;;;7.36;45.31;94968.31;5029947;28;20060;-60
2022/03/05 11:21:05;;;;;;;30.65;21.17;;;;;;;7.70;45.49;94994.81;5030260;28;20018;-65
2022/03/05 11:23:35;;;;;;;28.92;21.80;;;;;;;8.04;45.24;95005.88;5029954;28;20048;-60